Time;durP1;ratioP1;P1;durP2;ratioP2;P2;SDS_P1;SDS_P2;PMS_P1;PMS_P2;Temp;Humidity;BMP_temperature;BMP_pressure;BME280_temperature;BME280_humidity;BME280_pressure;Samples;Min_cycle;Max_cycle;Signal;HPM_P1;HPM_P2
2021/05/23 00:01:59;;;;;;;29.15;16.58;;;;;;;;;;5050187;28;20036;-60
2021/05/23 00:04:25;;;;;;;30.70;17.13;;;;;;;;;;5032225;28;20037;-60
2021/05/23 00:06:51;;;;;;;27.35;16.02;;;;;;;;;;5049872;28;20033;-62
2021/05/23 00:09:17;;;;;;;27.15;16.20;;;;;;;;;;5049524;28;20103;-61
2021/05/23 00:11:43;;;;;;;26.90;16.20;;;;;;;;;;5031607;28;20171;-60
2021/05/23 00:14:09;;;;;;;28.67;17.13;;;;;;;;;;5031847;28;20111;-59
2021/05/23 00:16:35;;;;;;;31.15;17.02;;;;;;;;;;5049213;28;20040;-60
2021/05/23 00:19:01;;;;;;;32.45;19.52;;;;;;;;;;5048084;28;20036;-60
2021/05/23 00:21:29;;;;;;;30.10;17.15;;;;;;;;;;5048239;28;20033;-59
2021/05/23 00:23:55;;;;;;;29.70;17.63;;;;;;;;;;5047994;28;20058;-61
2021/05/23 00:26:21;;;;;;;25.98;15.63;;;;;;;;;;5048015;28;20043;-61
2021/05/23 00:28:49;;;;;;;26.40;16.30;;;;;;;;;;5049278;28;20040;-60
2021/05/23 00:31:15;;;;;;;24.45;14.70;;;;;;;;;;5049262;28;20511;-59
2021/05/23 00:33:41;;;;;;;28.05;16.80;;;;;;;;;;5047424;28;20036;-59
2021/05/23 00:36:07;;;;;;;29.27;17.42;;;;;;;;;;5049784;28;20021;-62
2021/05/23 00:38:33;;;;;;;27.65;16.50;;;;;;;;;;5048235;28;20035;-62
2021/05/23 00:40:59;;;;;;;29.45;17.55;;;;;;;;;;5031452;28;20503;-62
2021/05/23 00:43:25;;;;;;;27.85;17.80;;;;;;;;;;5050818;28;20032;-63
2021/05/23 00:45:52;;;;;;;30.92;17.63;;;;;;;;;;5050504;28;20060;-62
2021/05/23 00:48:19;;;;;;;27.65;16.20;;;;;;;;;;5032613;28;20052;-62
2021/05/23 00:50:45;;;;;;;33.47;19.20;;;;;;;;;;5034158;28;20403;-62
2021/05/23 00:53:11;;;;;;;30.45;18.17;;;;;;;;;;5052616;28;20034;-63
2021/05/23 00:55:37;;;;;;;26.92;16.20;;;;;;;;;;5034691;28;20021;-61
2021/05/23 00:58:04;;;;;;;29.60;17.48;;;;;;;;;;5052586;28;20028;-64
2021/05/23 01:00:43;;;;;;;27.98;15.68;;;;;;;;;;5052652;28;20530;-62
2021/05/23 01:03:28;;;;;;;30.63;16.50;;;;;;;;;;5052370;28;20082;-61
2021/05/23 01:05:55;;;;;;;27.50;17.00;;;;;;;;;;5034393;28;20052;-63
2021/05/23 01:08:22;;;;;;;27.30;16.98;;;;;;;;;;5034363;28;20025;-62
2021/05/23 01:11:00;;;;;;;28.65;17.20;;;;;;;;;;5034184;28;20032;-61
2021/05/23 01:13:36;;;;;;;27.08;17.00;;;;;;;;;;5051913;28;20029;-62
2021/05/23 01:16:06;;;;;;;28.77;17.63;;;;;;;;;;5034018;28;20029;-63
2021/05/23 01:18:37;;;;;;;31.25;18.25;;;;;;;;;;5051926;28;20112;-61
2021/05/23 01:21:06;;;;;;;28.73;15.98;;;;;;;;;;5052112;28;20500;-60
2021/05/23 01:23:35;;;;;;;27.67;17.20;;;;;;;;;;5033950;28;20086;-62
2021/05/23 01:26:09;;;;;;;28.02;18.00;;;;;;;;;;5051840;28;20025;-61
2021/05/23 01:28:41;;;;;;;25.85;16.73;;;;;;;;;;5051744;28;20057;-61
2021/05/23 01:31:08;;;;;;;33.45;16.85;;;;;;;;;;5051743;28;20032;-62
2021/05/23 01:33:35;;;;;;;29.73;16.52;;;;;;;;;;5051438;28;20099;-62
2021/05/23 01:36:01;;;;;;;28.70;17.02;;;;;;;;;;5051850;28;20025;-62
2021/05/23 01:38:28;;;;;;;28.05;17.75;;;;;;;;;;5033867;28;20388;-62
2021/05/23 01:40:58;;;;;;;29.70;17.52;;;;;;;;;;5033764;28;20033;-62
2021/05/23 01:43:25;;;;;;;35.35;17.35;;;;;;;;;;5051515;28;20025;-62
2021/05/23 01:45:51;;;;;;;29.73;18.73;;;;;;;;;;5051502;28;20035;-62
2021/05/23 01:48:17;;;;;;;32.53;17.45;;;;;;;;;;5033562;28;20033;-63
2021/05/23 01:50:44;;;;;;;40.25;21.15;;;;;;;;;;5051741;28;20057;-61
2021/05/23 01:53:11;;;;;;;34.58;18.85;;;;;;;;;;5037327;28;20039;-63
2021/05/23 01:55:37;;;;;;;34.15;19.27;;;;;;;;;;5037673;28;20021;-61
2021/05/23 01:58:03;;;;;;;29.13;15.40;;;;;;;;;;5055271;28;20020;-62
2021/05/23 02:00:40;;;;;;;30.42;17.38;;;;;;;;;;5055223;28;20516;-62
2021/05/23 02:03:07;;;;;;;27.92;16.08;;;;;;;;;;5055075;28;20021;-59
2021/05/23 02:05:33;;;;;;;28.98;16.38;;;;;;;;;;5037275;28;20082;-61
2021/05/23 02:08:00;;;;;;;27.48;16.38;;;;;;;;;;5037200;28;20021;-62
2021/05/23 02:10:26;;;;;;;27.02;17.02;;;;;;;;;;5054913;28;20103;-62
2021/05/23 02:12:52;;;;;;;28.15;15.95;;;;;;;;;;5054874;28;20025;-59
2021/05/23 02:15:19;;;;;;;27.95;17.65;;;;;;;;;;5055026;28;20422;-61
2021/05/23 02:17:46;;;;;;;24.88;15.48;;;;;;;;;;5055541;28;20388;-61
2021/05/23 02:20:14;;;;;;;26.45;15.60;;;;;;;;;;5036993;28;20025;-60
2021/05/23 02:22:42;;;;;;;27.90;14.43;;;;;;;;;;5036933;28;20370;-61
2021/05/23 02:25:09;;;;;;;29.67;15.48;;;;;;;;;;5054913;28;20384;-62
2021/05/23 02:27:41;;;;;;;32.08;16.90;;;;;;;;;;5054585;28;20129;-60
2021/05/23 02:30:12;;;;;;;30.52;16.38;;;;;;;;;;5054757;28;20024;-61
2021/05/23 02:32:38;;;;;;;28.00;15.27;;;;;;;;;;5054419;28;20025;-62
2021/05/23 02:35:05;;;;;;;31.13;17.17;;;;;;;;;;5037020;28;20021;-60
2021/05/23 02:37:31;;;;;;;30.75;17.38;;;;;;;;;;5055160;28;20025;-59
2021/05/23 02:39:57;;;;;;;32.75;16.83;;;;;;;;;;5054684;28;20033;-61
2021/05/23 02:42:23;;;;;;;31.67;17.17;;;;;;;;;;5036577;28;20111;-62
2021/05/23 02:44:49;;;;;;;29.80;17.65;;;;;;;;;;5037495;28;20021;-61
2021/05/23 02:47:15;;;;;;;32.00;17.58;;;;;;;;;;5054686;28;20078;-62
2021/05/23 02:49:42;;;;;;;29.95;17.85;;;;;;;;;;5054630;28;20033;-62
2021/05/23 02:52:09;;;;;;;32.28;18.30;;;;;;;;;;5054149;28;20052;-61
2021/05/23 02:54:35;;;;;;;31.90;18.15;;;;;;;;;;5054268;28;20024;-62
2021/05/23 02:57:01;;;;;;;34.75;18.40;;;;;;;;;;5036474;28;20025;-61
2021/05/23 02:59:27;;;;;;;35.15;18.85;;;;;;;;;;5036321;28;20384;-62
2021/05/23 03:01:53;;;;;;;30.27;17.83;;;;;;;;;;5053922;28;20147;-62
2021/05/23 03:04:19;;;;;;;33.97;19.42;;;;;;;;;;5053173;28;20024;-57
2021/05/23 03:06:45;;;;;;;34.58;18.23;;;;;;;;;;5036179;28;20033;-61
2021/05/23 03:09:11;;;;;;;34.65;18.65;;;;;;;;;;5036028;28;20075;-60
2021/05/23 03:11:37;;;;;;;35.60;20.35;;;;;;;;;;5035883;28;20448;-62
2021/05/23 03:14:03;;;;;;;37.25;19.27;;;;;;;;;;5054117;28;20049;-63
2021/05/23 03:16:29;;;;;;;35.80;21.58;;;;;;;;;;5053836;28;20392;-62
2021/05/23 03:18:55;;;;;;;35.40;19.95;;;;;;;;;;5053919;28;20025;-61
2021/05/23 03:21:21;;;;;;;36.45;20.80;;;;;;;;;;5053667;28;20082;-61
2021/05/23 03:23:47;;;;;;;36.95;19.55;;;;;;;;;;5053780;28;20644;-61
2021/05/23 03:26:13;;;;;;;34.55;20.15;;;;;;;;;;5035815;28;20036;-61
2021/05/23 03:28:39;;;;;;;36.83;19.88;;;;;;;;;;5053503;28;20033;-60
2021/05/23 03:31:05;;;;;;;35.85;19.70;;;;;;;;;;5053583;28;20021;-62
2021/05/23 03:33:31;;;;;;;38.05;20.92;;;;;;;;;;5053237;28;20071;-61
2021/05/23 03:35:57;;;;;;;35.30;19.40;;;;;;;;;;5035933;28;20021;-62
2021/05/23 03:38:25;;;;;;;34.08;18.38;;;;;;;;;;5035702;28;20056;-62
2021/05/23 03:40:51;;;;;;;34.40;18.98;;;;;;;;;;5035641;28;20397;-58
2021/05/23 03:43:17;;;;;;;34.75;18.05;;;;;;;;;;5053237;28;20024;-60
2021/05/23 03:45:43;;;;;;;35.35;19.85;;;;;;;;;;5053194;28;20115;-62
2021/05/23 03:48:09;;;;;;;32.95;19.38;;;;;;;;;;5053081;28;20032;-62
2021/05/23 03:50:35;;;;;;;32.60;18.92;;;;;;;;;;5053211;28;20108;-62
2021/05/23 03:53:01;;;;;;;36.28;19.98;;;;;;;;;;5034979;28;20119;-62
2021/05/23 03:55:28;;;;;;;34.53;20.30;;;;;;;;;;5035311;28;20063;-62
2021/05/23 03:57:54;;;;;;;31.90;18.02;;;;;;;;;;5052958;28;20021;-62
2021/05/23 04:00:21;;;;;;;31.80;18.50;;;;;;;;;;5053009;28;20112;-62
2021/05/23 04:02:51;;;;;;;36.70;18.23;;;;;;;;;;5035247;28;20128;-62
2021/05/23 04:05:17;;;;;;;33.97;19.10;;;;;;;;;;5053218;28;20079;-61
2021/05/23 04:07:43;;;;;;;34.80;19.05;;;;;;;;;;5035145;28;20083;-63
2021/05/23 04:10:11;;;;;;;36.47;18.95;;;;;;;;;;5053091;28;20052;-61
2021/05/23 04:12:43;;;;;;;33.75;19.30;;;;;;;;;;5035128;28;20025;-60
2021/05/23 04:15:09;;;;;;;37.90;20.95;;;;;;;;;;5035207;28;20094;-61
2021/05/23 04:17:36;;;;;;;35.88;21.00;;;;;;;;;;5052797;28;20025;-62
2021/05/23 04:20:04;;;;;;;34.15;20.45;;;;;;;;;;5035018;28;20025;-62
2021/05/23 04:22:30;;;;;;;37.95;22.00;;;;;;;;;;5034978;28;20036;-63
2021/05/23 04:24:56;;;;;;;39.47;20.60;;;;;;;;;;5034908;28;20640;-63
2021/05/23 04:27:22;;;;;;;34.08;19.80;;;;;;;;;;5052784;28;20033;-62
2021/05/23 04:29:48;;;;;;;35.85;21.33;;;;;;;;;;5053290;28;20427;-62
2021/05/23 04:32:14;;;;;;;37.53;21.77;;;;;;;;;;5035261;28;20021;-62
2021/05/23 04:34:40;;;;;;;39.25;21.02;;;;;;;;;;5052981;28;20435;-61
2021/05/23 04:37:06;;;;;;;132.55;93.30;;;;;;;;;;5052863;28;20048;-62
2021/05/23 04:39:32;;;;;;;51.55;29.75;;;;;;;;;;5034825;28;20021;-58
2021/05/23 04:41:58;;;;;;;41.38;20.95;;;;;;;;;;5052439;28;20544;-60
2021/05/23 04:44:24;;;;;;;38.45;22.30;;;;;;;;;;5052740;28;20060;-60
2021/05/23 04:46:50;;;;;;;37.40;22.65;;;;;;;;;;5052562;28;20040;-60
2021/05/23 04:49:16;;;;;;;37.17;21.08;;;;;;;;;;5051985;23;20543;-59
2021/05/23 04:51:43;;;;;;;36.97;21.63;;;;;;;;;;5053415;28;20063;-58
2021/05/23 04:54:09;;;;;;;35.60;21.42;;;;;;;;;;5054143;28;20021;-59
2021/05/23 04:56:35;;;;;;;42.20;22.90;;;;;;;;;;5072704;28;20308;-58
2021/05/23 04:59:01;;;;;;;43.90;23.98;;;;;;;;;;5072559;28;20084;-58
2021/05/23 05:01:27;;;;;;;41.85;22.67;;;;;;;;;;5054353;28;20495;-57
2021/05/23 05:03:53;;;;;;;36.53;20.77;;;;;;;;;;5072288;28;20029;-60
2021/05/23 05:06:19;;;;;;;39.80;20.88;;;;;;;;;;5072099;28;20032;-61
2021/05/23 05:08:46;;;;;;;41.00;22.83;;;;;;;;;;5071982;28;20032;-56
2021/05/23 05:11:12;;;;;;;35.67;20.65;;;;;;;;;;5053912;28;20391;-55
2021/05/23 05:13:38;;;;;;;36.50;21.30;;;;;;;;;;5071718;28;20025;-59
2021/05/23 05:16:04;;;;;;;39.17;22.13;;;;;;;;;;5053788;28;20024;-59
2021/05/23 05:18:30;;;;;;;39.97;20.70;;;;;;;;;;5071867;28;20081;-58
2021/05/23 05:20:56;;;;;;;40.25;23.13;;;;;;;;;;5053554;28;20032;-56
2021/05/23 05:23:22;;;;;;;41.55;23.65;;;;;;;;;;5071490;28;20020;-54
2021/05/23 05:25:48;;;;;;;40.33;22.63;;;;;;;;;;5053850;28;20043;-53
2021/05/23 05:28:14;;;;;;;43.15;22.35;;;;;;;;;;5057694;28;20049;-55
2021/05/23 05:30:40;;;;;;;35.63;20.73;;;;;;;;;;5075500;28;20027;-58
2021/05/23 05:33:06;;;;;;;43.40;22.52;;;;;;;;;;5075569;28;20016;-58
2021/05/23 05:35:32;;;;;;;41.17;21.13;;;;;;;;;;5075846;28;20495;-59
2021/05/23 05:37:58;;;;;;;37.13;20.92;;;;;;;;;;5058192;28;20066;-58
2021/05/23 05:40:24;;;;;;;39.67;21.45;;;;;;;;;;5075567;28;20028;-58
2021/05/23 05:42:50;;;;;;;39.13;21.23;;;;;;;;;;5075563;28;20034;-55
2021/05/23 05:45:16;;;;;;;39.03;22.80;;;;;;;;;;5075481;28;20021;-56
2021/05/23 05:47:42;;;;;;;46.28;23.13;;;;;;;;;;5057393;28;20028;-52
2021/05/23 05:50:09;;;;;;;44.15;23.92;;;;;;;;;;5057265;28;20111;-54
2021/05/23 05:52:35;;;;;;;41.15;21.63;;;;;;;;;;5075038;28;20528;-58
2021/05/23 05:55:01;;;;;;;41.75;23.58;;;;;;;;;;5057233;28;20072;-56
2021/05/23 05:57:27;;;;;;;39.60;21.23;;;;;;;;;;5075285;28;20027;-59
2021/05/23 05:59:53;;;;;;;47.50;24.27;;;;;;;;;;5075171;28;20028;-53
2021/05/23 06:02:19;;;;;;;50.00;26.98;;;;;;;;;;5057395;28;20025;-52
2021/05/23 06:04:46;;;;;;;34.53;20.67;;;;;;;;;;5057316;28;20507;-58
2021/05/23 06:07:12;;;;;;;24.70;15.50;;;;;;;;;;5075085;28;20016;-56
2021/05/23 06:09:38;;;;;;;23.42;13.35;;;;;;;;;;5074691;28;20031;-57
2021/05/23 06:12:04;;;;;;;22.70;12.82;;;;;;;;;;5056845;28;20227;-57
2021/05/23 06:14:30;;;;;;;24.80;14.18;;;;;;;;;;5056797;28;20469;-59
2021/05/23 06:16:56;;;;;;;22.98;13.02;;;;;;;;;;5074815;28;20108;-58
2021/05/23 06:19:22;;;;;;;23.40;12.93;;;;;;;;;;5074800;28;20091;-56
2021/05/23 06:21:48;;;;;;;23.08;12.02;;;;;;;;;;5056623;28;20036;-55
2021/05/23 06:24:14;;;;;;;29.30;14.40;;;;;;;;;;5074687;28;20025;-58
2021/05/23 06:26:40;;;;;;;26.17;14.40;;;;;;;;;;5074583;28;20033;-55
2021/05/23 06:29:06;;;;;;;23.55;13.48;;;;;;;;;;5074947;28;20032;-57
2021/05/23 06:31:32;;;;;;;26.83;15.27;;;;;;;;;;5074485;28;20021;-57
2021/05/23 06:33:58;;;;;;;25.80;15.02;;;;;;;;;;5056592;28;20070;-56
2021/05/23 06:36:24;;;;;;;26.48;14.85;;;;;;;;;;5074585;28;20021;-58
2021/05/23 06:38:50;;;;;;;20.92;12.65;;;;;;;;;;5073160;28;20075;-59
2021/05/23 06:41:16;;;;;;;20.83;11.90;;;;;;;;;;5056615;28;20148;-56
2021/05/23 06:43:45;;;;;;;20.98;11.95;;;;;;;;;;5074389;28;20024;-55
2021/05/23 06:46:11;;;;;;;20.17;11.18;;;;;;;;;;5074329;28;20032;-58
2021/05/23 06:48:37;;;;;;;19.42;10.57;;;;;;;;;;5074074;28;20095;-59
2021/05/23 06:51:03;;;;;;;20.52;11.00;;;;;;;;;;5056166;28;20484;-57
2021/05/23 06:53:29;;;;;;;19.52;10.80;;;;;;;;;;5073997;28;20093;-56
2021/05/23 06:55:55;;;;;;;19.95;10.98;;;;;;;;;;5074244;28;20099;-57
2021/05/23 06:58:21;;;;;;;20.00;10.68;;;;;;;;;;5056160;28;20480;-58
2021/05/23 07:00:47;;;;;;;18.92;10.38;;;;;;;;;;5056202;28;20028;-58
2021/05/23 07:03:13;;;;;;;19.65;10.68;;;;;;;;;;5073886;28;20469;-58
2021/05/23 07:05:39;;;;;;;19.52;10.73;;;;;;;;;;5070969;28;20032;-59
2021/05/23 07:08:05;;;;;;;20.98;11.95;;;;;;;;;;5068347;28;20025;-57
2021/05/23 07:10:31;;;;;;;22.10;12.13;;;;;;;;;;5061297;28;20047;-58
2021/05/23 07:12:57;;;;;;;21.35;11.98;;;;;;;;;;5055631;28;20024;-60
2021/05/23 07:15:23;;;;;;;22.05;11.85;;;;;;;;;;5060665;28;20024;-60
2021/05/23 07:17:52;;;;;;;22.17;12.68;;;;;;;;;;5035854;28;20477;-60
2021/05/23 07:20:18;;;;;;;;;;;;;;;;;;5054419;28;20036;-59
2021/05/23 07:22:44;;;;;;;25.05;13.88;;;;;;;;;;5038324;28;20268;-60
2021/05/23 07:25:10;;;;;;;24.65;13.23;;;;;;;;;;5073451;28;20451;-58
2021/05/23 07:27:36;;;;;;;26.20;15.43;;;;;;;;;;5073313;28;20464;-56
2021/05/23 07:30:03;;;;;;;41.95;19.67;;;;;;;;;;5073512;28;20036;-60
2021/05/23 07:32:29;;;;;;;33.53;19.45;;;;;;;;;;5073290;28;20145;-59
2021/05/23 07:34:55;;;;;;;31.65;19.27;;;;;;;;;;5055296;28;20025;-60
2021/05/23 07:37:21;;;;;;;35.72;20.75;;;;;;;;;;5073676;28;20052;-61
2021/05/23 07:39:47;;;;;;;32.28;20.40;;;;;;;;;;5067555;28;20021;-60
2021/05/23 07:42:13;;;;;;;37.65;22.67;;;;;;;;;;5062996;28;20472;-61
2021/05/23 07:44:39;;;;;;;37.05;22.67;;;;;;;;;;5044858;28;20029;-60
2021/05/23 07:47:05;;;;;;;39.90;26.75;;;;;;;;;;5043606;28;20112;-61
2021/05/23 07:49:31;;;;;;;36.58;21.98;;;;;;;;;;5062733;28;20029;-60
2021/05/23 07:51:57;;;;;;;29.75;19.33;;;;;;;;;;5052698;28;20396;-61
2021/05/23 07:54:23;;;;;;;28.25;17.98;;;;;;;;;;5040341;28;20017;-58
2021/05/23 07:56:49;;;;;;;27.23;16.75;;;;;;;;;;5063382;28;20031;-59
2021/05/23 07:59:15;;;;;;;22.80;14.65;;;;;;;;;;5058243;28;20535;-61
2021/05/23 08:01:41;;;;;;;24.02;15.43;;;;;;;;;;5034899;28;20040;-59
2021/05/23 08:04:07;;;;;;;24.77;14.23;;;;;;;;;;5052726;28;20021;-58
2021/05/23 08:06:33;;;;;;;22.13;12.77;;;;;;;;;;5052726;28;20029;-57
2021/05/23 08:08:59;;;;;;;23.42;12.93;;;;;;;;;;5050950;28;20025;-61
2021/05/23 08:11:25;;;;;;;22.70;13.00;;;;;;;;;;5052555;28;20067;-58
2021/05/23 08:13:51;;;;;;;22.80;12.88;;;;;;;;;;5052194;28;20038;-55
2021/05/23 08:16:17;;;;;;;24.15;13.68;;;;;;;;;;5052717;28;20052;-56
2021/05/23 08:18:43;;;;;;;25.70;13.85;;;;;;;;;;5052971;28;20052;-62
2021/05/23 08:21:09;;;;;;;24.52;15.05;;;;;;;;;;5051797;28;20495;-61
2021/05/23 08:23:36;;;;;;;25.63;15.45;;;;;;;;;;5052613;28;20496;-60
2021/05/23 08:26:02;;;;;;;26.65;14.70;;;;;;;;;;5051229;28;20029;-49
2021/05/23 08:28:31;;;;;;;32.35;16.52;;;;;;;;;;5053025;28;20032;-53
2021/05/23 08:30:58;;;;;;;26.45;16.90;;;;;;;;;;5052311;28;20075;-49
2021/05/23 08:33:24;;;;;;;25.58;15.43;;;;;;;;;;5050835;28;20021;-52
2021/05/23 08:35:50;;;;;;;29.75;15.73;;;;;;;;;;5052066;28;20053;-53
2021/05/23 08:38:16;;;;;;;24.10;15.30;;;;;;;;;;5052065;28;20060;-51
2021/05/23 08:40:42;;;;;;;24.63;12.98;;;;;;;;;;5050892;28;20021;-53
2021/05/23 08:43:10;;;;;;;26.55;12.32;;;;;;;;;;5054589;28;20017;-53
2021/05/23 08:45:36;;;;;;;22.80;12.95;;;;;;;;;;5072012;28;20020;-51
2021/05/23 08:48:02;;;;;;;24.02;12.98;;;;;;;;;;5054538;28;20025;-52
2021/05/23 08:50:28;;;;;;;22.50;11.38;;;;;;;;;;5071650;28;20032;-53
2021/05/23 08:52:58;;;;;;;23.67;9.80;;;;;;;;;;5071714;28;20044;-51
2021/05/23 08:55:25;;;;;;;18.00;8.20;;;;;;;;;;5055531;28;20472;-50
2021/05/23 08:57:52;;;;;;;16.17;7.93;;;;;;;;;;5073127;28;20036;-52
2021/05/23 09:00:18;;;;;;;20.42;9.32;;;;;;;;;;5070498;28;20029;-53
2021/05/23 09:02:54;;;;;;;19.63;8.43;;;;;;;;;;5070438;28;20059;-49
2021/05/23 09:05:27;;;;;;;25.40;8.70;;;;;;;;;;5069436;28;20031;-55
2021/05/23 09:07:53;;;;;;;20.23;10.23;;;;;;;;;;5073912;28;20033;-52
2021/05/23 09:10:23;;;;;;;19.02;8.98;;;;;;;;;;5073482;28;20032;-52
2021/05/23 09:12:49;;;;;;;19.50;8.52;;;;;;;;;;5074451;28;20027;-54
2021/05/23 09:15:15;;;;;;;17.80;8.23;;;;;;;;;;5075149;28;20024;-50
2021/05/23 09:17:41;;;;;;;16.98;7.72;;;;;;;;;;5059071;28;20096;-49
2021/05/23 09:20:07;;;;;;;17.67;7.07;;;;;;;;;;5076204;28;20041;-53
2021/05/23 09:22:33;;;;;;;16.80;6.28;;;;;;;;;;5053731;28;20032;-51
2021/05/23 09:25:05;;;;;;;19.90;7.68;;;;;;;;;;5072006;28;20029;-50
2021/05/23 09:27:32;;;;;;;22.15;7.45;;;;;;;;;;5071798;28;20029;-50
2021/05/23 09:30:01;;;;;;;17.30;7.38;;;;;;;;;;5071808;28;20164;-50
2021/05/23 09:32:27;;;;;;;15.93;6.05;;;;;;;;;;5071496;28;20029;-53
2021/05/23 09:35:01;;;;;;;17.63;6.40;;;;;;;;;;5071674;28;20480;-55
2021/05/23 09:37:27;;;;;;;16.52;6.47;;;;;;;;;;5053370;28;20024;-54
2021/05/23 09:39:53;;;;;;;18.77;6.65;;;;;;;;;;5071436;28;20078;-56
2021/05/23 09:42:19;;;;;;;18.98;6.65;;;;;;;;;;5053213;28;20056;-54
2021/05/23 09:44:45;;;;;;;16.38;5.72;;;;;;;;;;5070749;28;20362;-52
2021/05/23 09:47:13;;;;;;;16.00;5.07;;;;;;;;;;5070597;28;20027;-55
2021/05/23 09:49:45;;;;;;;19.05;7.43;;;;;;;;;;5070426;28;20024;-59
2021/05/23 09:52:12;;;;;;;16.77;5.45;;;;;;;;;;5071648;28;20404;-60
2021/05/23 09:55:05;;;;;;;16.63;5.47;;;;;;;;;;5053505;28;20033;-59
2021/05/23 09:57:31;;;;;;;17.30;4.88;;;;;;;;;;5067060;28;20044;-53
2021/05/23 10:00:00;;;;;;;18.48;5.63;;;;;;;;;;5071436;28;20044;-55
2021/05/23 10:02:26;;;;;;;16.75;6.60;;;;;;;;;;5071188;28;20067;-57
2021/05/23 10:04:52;;;;;;;20.05;6.72;;;;;;;;;;5071184;28;20039;-55
2021/05/23 10:07:18;;;;;;;22.15;6.85;;;;;;;;;;5070991;28;20024;-56
2021/05/23 10:09:44;;;;;;;18.75;6.25;;;;;;;;;;5054281;28;20390;-55
2021/05/23 10:12:14;;;;;;;17.08;6.78;;;;;;;;;;5072556;28;20028;-55
2021/05/23 10:14:40;;;;;;;16.50;5.78;;;;;;;;;;5075273;28;20033;-55
2021/05/23 10:17:07;;;;;;;17.58;5.30;;;;;;;;;;5074919;28;20087;-52
2021/05/23 10:19:34;;;;;;;15.77;5.28;;;;;;;;;;5075103;28;20040;-54
2021/05/23 10:22:02;;;;;;;19.27;5.20;;;11.20;99.90;;;;;;5074614;28;20028;-54
2021/05/23 10:24:34;;;;;;;16.80;5.57;;;;;;;;;;5074954;28;20027;-54
2021/05/23 10:27:06;;;;;;;15.50;5.35;;;12.40;99.90;;;;;;5074584;28;20395;-54
2021/05/23 10:29:53;;;;;;;16.38;5.05;;;12.60;99.90;;;;;;5074401;28;20021;-56
2021/05/23 10:32:21;;;;;;;14.07;4.65;;;;;;;;;;5074155;28;20024;-54
2021/05/23 10:34:49;;;;;;;17.08;4.55;;;;;;;;;;5074443;28;20017;-56
2021/05/23 10:37:19;;;;;;;15.20;4.35;;;;;;;;;;5074490;28;20024;-57
2021/05/23 10:39:53;;;;;;;13.95;4.70;;;;;;;;;;5074385;28;20032;-55
2021/05/23 10:42:21;;;;;;;10.55;4.40;;;;;;;;;;5074088;28;20028;-54
2021/05/23 10:44:48;;;;;;;13.68;4.45;;;;;;;;;;5074227;28;20060;-54
2021/05/23 10:47:16;;;;;;;11.95;4.50;;;;;;;;;;5055921;28;20047;-55
2021/05/23 10:49:55;;;;;;;14.25;4.60;;;;;;;;;;5089016;23;20021;-58
2021/05/23 10:52:28;;;;;;;12.40;4.43;;;;;;;;;;5075601;28;20040;-55
2021/05/23 10:54:55;;;;;;;11.18;4.55;;;;;;;;;;5076036;28;20149;-59
2021/05/23 10:57:21;;;;;;;14.10;4.80;;;;;;;;;;5094374;28;20048;-56
2021/05/23 10:59:56;;;;;;;13.80;5.57;;;;;;;;;;5094260;28;20395;-56
2021/05/23 11:02:33;;;;;;;16.25;4.75;;;;;;;;;;5094377;28;20050;-60
2021/05/23 11:04:59;;;;;;;13.70;4.60;;;;;;;;;;5076009;28;20024;-60
2021/05/23 11:07:25;;;;;;;14.93;4.68;;;;;;;;;;5089914;28;20182;-58
2021/05/23 11:09:51;;;;;;;12.95;4.70;;;;;;;;;;5073786;28;20021;-54
2021/05/23 11:12:19;;;;;;;17.02;4.70;;;;;;;;;;4723824;28;10000082;-56
2021/05/23 11:14:57;;;;;;;12.40;4.93;;;;;;;;;;5091658;28;20016;-59
2021/05/23 11:17:23;;;;;;;16.30;5.20;;;;;;;;;;5071731;28;20028;-61
2021/05/23 11:19:49;;;;;;;14.90;4.95;;;;;;;;;;5078554;28;20121;-56
2021/05/23 11:22:15;;;;;;;15.43;5.43;;;;;;;;;;5063259;28;20116;-58
2021/05/23 11:24:45;;;;;;;13.38;5.15;;;;;;;;;;5060453;28;20020;-61
2021/05/23 11:27:18;;;;;;;12.85;5.05;;;;;;;;;;5080313;28;20024;-57
2021/05/23 11:29:45;;;;;;;18.73;6.13;;;;;;;;;;5060166;28;20032;-54
2021/05/23 11:32:11;;;;;;;14.68;5.63;;;;;;;;;;5051548;28;20392;-59
2021/05/23 11:34:37;;;;;;;15.68;6.30;;;;;;;;;;5070253;28;20059;-59
2021/05/23 11:37:03;;;;;;;13.07;6.07;;;;;;;;;;5052029;28;20025;-58
2021/05/23 11:39:30;;;;;;;18.35;6.13;;;;;;;;;;5052255;28;20454;-57
2021/05/23 11:41:57;;;;;;;14.40;6.60;;;;;;;;;;5070271;28;20558;-59
2021/05/23 11:44:46;;;;;;;15.90;7.45;;;;;;;;;;5072982;28;20122;-58
2021/05/23 11:47:12;;;;;;;;;;;;;;;;;;5073744;28;20036;-61
2021/05/23 11:49:44;;;;;;;14.45;7.57;;;;;;;;;;5063848;28;19923;-60
2021/05/23 11:52:10;;;;;;;15.95;9.77;;;;;;;;;;5080569;28;20491;-59
2021/05/23 11:54:36;;;;;;;15.27;7.80;;;;;;;;;;5080608;28;20062;-56
2021/05/23 11:57:04;;;;;;;15.02;7.82;;;;;;;;;;5080292;28;20028;-54
2021/05/23 11:59:31;;;;;;;16.35;8.40;;;;;;;;;;5078312;28;20086;-56
2021/05/23 12:01:57;;;;;;;15.15;7.95;;;;;;;;;;5077428;28;20035;-57
2021/05/23 12:04:23;;;;;;;15.23;8.02;;;;;;;;;;5072263;28;20029;-58
2021/05/23 12:06:51;;;;;;;16.05;8.45;;;;;;;;;;5051367;28;20164;-57
2021/05/23 12:09:24;;;;;;;13.98;8.27;;;;;;;;;;5069623;28;20119;-57
2021/05/23 12:11:56;;;;;;;14.10;8.23;;;;;;;;;;5071652;28;20108;-59
2021/05/23 12:14:28;;;;;;;14.93;8.73;;;;;;;;;;5073053;28;20028;-59
2021/05/23 12:17:13;;;;;;;16.08;7.90;;;;;;;;;;5072903;28;20033;-59
2021/05/23 12:19:49;;;;;;;15.32;7.93;;;;;;;;;;5072078;28;20044;-58
2021/05/23 12:22:18;;;;;;;17.38;8.32;;;;;;;;;;5073048;28;20036;-60
2021/05/23 12:24:44;;;;;;;15.48;8.52;;;;;;;;;;5072622;28;20063;-59
2021/05/23 12:27:15;;;;;;;16.00;8.30;;;;;;;;;;5072765;28;20500;-58
2021/05/23 12:29:41;;;;;;;15.48;8.23;;;;;;;;;;5073376;28;20376;-56
2021/05/23 12:32:08;;;;;;;15.35;8.32;;;;;;;;;;5071747;28;20030;-59
2021/05/23 12:34:41;;;;;;;15.32;8.30;;;;;;;;;;5073044;28;20021;-55
2021/05/23 12:37:07;;;;;;;14.38;7.90;;;;;;;;;;5073013;28;20476;-60
2021/05/23 12:39:33;;;;;;;15.32;8.25;;;;;;;;;;5072131;28;20033;-58
2021/05/23 12:42:02;;;;;;;16.13;8.77;;;;;;;;;;5071936;28;20445;-56
2021/05/23 12:44:32;;;;;;;15.80;7.70;;;;;;;;;;4736582;28;9999661;-56
2021/05/23 12:47:11;;;;;;;21.67;8.57;;;;;;;;;;5089530;28;20020;-56
2021/05/23 12:49:44;;;;;;;15.10;8.50;;;;;;;;;;5089322;28;20020;-56
2021/05/23 12:52:11;;;;;;;16.02;8.32;;;;;;;;;;5091011;28;20099;-58
2021/05/23 12:54:39;;;;;;;15.55;8.23;;;;;;;;;;5073339;28;20398;-55
2021/05/23 12:57:06;;;;;;;16.95;8.55;;;;;;;;;;4739171;28;9999766;-56
2021/05/23 12:59:39;;;;;;;16.80;9.02;;;;;;;;;;5089328;28;20027;-59
2021/05/23 13:02:06;;;;;;;17.52;9.07;;;;;;;;;;5089137;28;20024;-58
2021/05/23 13:04:36;;;;;;;14.60;8.55;;;;;;;;;;5089229;28;20113;-60
2021/05/23 13:07:03;;;;;;;17.35;9.00;;;;;;;;;;5089592;28;20040;-58
2021/05/23 13:09:29;;;;;;;16.30;8.63;;;;;;;;;;5070942;28;20128;-53
2021/05/23 13:11:56;;;;;;;16.20;8.35;;;;;;;;;;5089325;28;20206;-54
2021/05/23 13:14:22;;;;;;;17.63;8.70;;;;;;;;;;5071008;28;20175;-56
2021/05/23 13:16:54;;;;;;;18.15;8.98;;;;;;;;;;5071219;28;20068;-58
2021/05/23 13:19:20;;;;;;;16.35;8.23;;;;;;;;;;5091091;28;20024;-56
2021/05/23 13:21:47;;;;;;;15.55;7.82;;;;;;;;;;5091285;28;20039;-57
2021/05/23 13:24:15;;;;;;;14.82;8.30;;;;;;;;;;5073615;28;20047;-56
2021/05/23 13:26:48;;;;;;;17.20;7.77;;;;;;;;;;5092184;28;20511;-59
2021/05/23 13:29:14;;;;;;;17.02;9.63;;;;;;;;;;5091804;28;20270;-55
2021/05/23 13:31:40;;;;;;;16.45;8.63;;;;;;;;;;5091743;28;20044;-58
2021/05/23 13:34:06;;;;;;;15.57;8.60;;;;;;;;;;5091956;28;20019;-54
2021/05/23 13:36:32;;;;;;;17.95;8.63;;;;;;;;;;5073926;28;20147;-57
2021/05/23 13:38:58;;;;;;;16.35;8.57;;;;;;;;;;5073921;28;20020;-57
2021/05/23 13:41:24;;;;;;;15.93;8.50;;;;;;;;;;5091735;28;20024;-54
2021/05/23 13:43:50;;;;;;;14.35;8.20;;;;;;;;;;5073189;28;20085;-54
2021/05/23 13:46:16;;;;;;;15.98;8.73;;;;;;;;;;5091504;28;20032;-57
2021/05/23 13:48:42;;;;;;;15.65;8.80;;;;;;;;;;5094941;28;20393;-59
2021/05/23 13:51:08;;;;;;;16.15;8.30;;;;;;;;;;5077264;28;20137;-61
2021/05/23 13:53:34;;;;;;;13.52;7.60;;;;;;;;;;5095432;28;20087;-58
2021/05/23 13:56:00;;;;;;;17.52;8.48;;;;;;;;;;5095915;28;20020;-59
2021/05/23 13:58:26;;;;;;;15.13;8.07;;;;;;;;;;5077339;28;20038;-59
2021/05/23 14:00:52;;;;;;;16.67;8.30;;;;;;;;;;5077195;28;20020;-59
2021/05/23 14:03:20;;;;;;;16.35;8.55;;;;;;;;;;5095150;28;20020;-60
2021/05/23 14:05:50;;;;;;;14.50;8.30;;;;;;;;;;5095664;28;20432;-58
2021/05/23 14:08:16;;;;;;;15.10;8.48;;;;;;;;;;5095279;28;20065;-58
2021/05/23 14:10:42;;;;;;;17.92;8.70;;;;;;;;;;4721166;28;10000129;-55
2021/05/23 14:13:09;;;;;;;14.95;8.10;;;;;;;;;;5083308;28;20127;-62
2021/05/23 14:15:38;;;;;;;16.13;8.60;;;;;;;;;;5080904;28;20031;-60
2021/05/23 14:18:05;;;;;;;15.63;8.35;;;;;;;;;;5069463;28;20070;-58
2021/05/23 14:20:31;;;;;;;17.02;8.27;;;;;;;;;;5060265;28;20115;-56
2021/05/23 14:22:57;;;;;;;17.08;9.10;;;12.90;99.90;;;;;;5075085;28;20369;-60